createdAt,value
2023-04-21T00:03:38.746Z,98178.63
2023-04-21T00:07:41.868Z,98169.59
2023-04-21T00:11:44.334Z,98162.97
2023-04-21T00:15:46.576Z,98154.97
2023-04-21T00:19:48.950Z,98148.34
2023-04-21T00:23:51.226Z,98156.06
2023-04-21T00:27:53.689Z,98150.47
2023-04-21T00:31:56.145Z,98148.88
2023-04-21T00:36:00.151Z,98143.81
2023-04-21T00:40:04.924Z,98147.03
2023-04-21T00:44:09.856Z,98147.56
2023-04-21T00:48:13.080Z,98144.09
2023-04-21T00:52:18.781Z,98138.75
2023-04-21T00:56:23.212Z,98134.44
2023-04-21T01:00:25.774Z,98143.44
2023-04-21T01:04:37.949Z,98139.13
2023-04-21T01:08:49.359Z,98135.16
2023-04-21T01:12:53.457Z,98143.38
2023-04-21T01:16:55.676Z,98144.44
2023-04-21T01:20:59.545Z,98143.34
2023-04-21T01:25:03.332Z,98136.97
2023-04-21T01:29:05.916Z,98145.31
2023-04-21T01:33:08.679Z,98137.00
2023-04-21T01:37:13.384Z,98131.69
2023-04-21T01:41:16.072Z,98139.81
2023-04-21T01:45:18.458Z,98136.91
2023-04-21T01:49:21.147Z,98134.78
2023-04-21T01:53:24.394Z,98132.81
2023-04-21T01:57:27.230Z,98138.66
2023-04-21T02:01:29.523Z,98137.09
2023-04-21T02:05:32.387Z,98136.53
2023-04-21T02:09:34.777Z,98138.41
2023-04-21T02:13:37.241Z,98139.22
2023-04-21T02:17:39.707Z,98135.50
2023-04-21T02:21:41.995Z,98134.91
2023-04-21T02:25:44.255Z,98131.13
2023-04-21T02:29:49.177Z,98127.47
2023-04-21T02:33:51.562Z,98130.16
2023-04-21T02:37:53.823Z,98118.00
2023-04-21T02:41:58.765Z,98124.06
2023-04-21T02:46:07.842Z,98131.50
2023-04-21T02:50:10.831Z,98133.03
2023-04-21T02:54:13.280Z,98132.72
2023-04-21T02:58:15.606Z,98133.88
2023-04-21T03:02:17.844Z,98138.19
2023-04-21T03:06:20.341Z,98141.66
2023-04-21T03:10:22.708Z,98148.38
2023-04-21T03:14:24.874Z,98145.72
2023-04-21T03:18:27.931Z,98148.19
2023-04-21T03:22:30.527Z,98150.16
2023-04-21T03:26:32.827Z,98152.25
2023-04-21T03:30:36.069Z,98147.63
2023-04-21T03:34:38.683Z,98158.84
2023-04-21T03:38:41.517Z,98165.69
2023-04-21T03:42:43.920Z,98171.50
2023-04-21T03:46:47.186Z,98175.94
2023-04-21T03:50:49.436Z,98172.03
2023-04-21T03:54:51.698Z,98174.13
2023-04-21T03:58:54.005Z,98177.31
2023-04-21T04:02:56.449Z,98176.88
2023-04-21T04:06:59.096Z,98177.06
2023-04-21T04:11:01.578Z,98180.50
2023-04-21T04:15:04.000Z,98179.53
2023-04-21T04:19:06.657Z,98174.72
2023-04-21T04:23:09.448Z,98176.16
2023-04-21T04:27:15.621Z,98187.66
2023-04-21T04:31:18.151Z,98185.56
2023-04-21T04:35:20.513Z,98195.41
2023-04-21T04:39:22.999Z,98198.91
2023-04-21T04:43:25.646Z,98196.31
2023-04-21T04:47:28.015Z,98193.31
2023-04-21T04:51:30.515Z,98207.78
2023-04-21T04:55:33.251Z,98208.91
2023-04-21T04:59:36.811Z,98209.63
2023-04-21T05:03:39.583Z,98206.56
2023-04-21T05:07:42.053Z,98216.00
2023-04-21T05:11:44.212Z,98218.03
2023-04-21T05:15:50.333Z,98222.13
2023-04-21T05:19:52.437Z,98225.13
2023-04-21T05:23:59.214Z,98234.72
2023-04-21T05:28:01.317Z,98242.22
2023-04-21T05:32:03.652Z,98239.41
2023-04-21T05:36:12.200Z,98242.50
2023-04-21T05:40:14.347Z,98236.66
2023-04-21T05:44:18.197Z,98237.38
2023-04-21T05:48:20.632Z,98238.06
2023-04-21T05:52:22.854Z,98236.84
2023-04-21T05:56:24.874Z,98234.50
2023-04-21T06:00:29.587Z,98227.88
2023-04-21T06:04:32.651Z,98235.09
2023-04-21T06:08:35.030Z,98226.31
2023-04-21T06:12:37.327Z,98224.47
2023-04-21T06:16:39.521Z,98222.59
2023-04-21T06:20:41.967Z,98223.97
2023-04-21T06:24:44.147Z,98227.69
2023-04-21T06:28:46.680Z,98233.25
2023-04-21T06:32:49.042Z,98228.19
2023-04-21T06:36:51.192Z,98229.22
2023-04-21T06:40:53.255Z,98223.88
2023-04-21T06:44:56.650Z,98232.63
2023-04-21T06:48:58.742Z,98230.25
2023-04-21T06:53:00.815Z,98223.22
2023-04-21T06:57:02.944Z,98224.50
2023-04-21T07:01:05.080Z,98216.13
2023-04-21T07:05:08.035Z,98223.50
2023-04-21T07:09:10.506Z,98219.69
2023-04-21T07:13:12.559Z,98224.19
2023-04-21T07:17:14.601Z,98225.50
2023-04-21T07:21:16.666Z,98223.97
2023-04-21T07:25:18.914Z,98225.72
2023-04-21T07:29:21.337Z,98229.28
2023-04-21T07:33:23.468Z,98221.59
2023-04-21T07:37:27.168Z,98231.75
2023-04-21T07:41:29.413Z,98222.84
2023-04-21T07:45:31.556Z,98232.03
2023-04-21T07:49:33.702Z,98230.03
2023-04-21T07:53:35.845Z,98219.63
2023-04-21T07:57:39.601Z,98221.66
2023-04-21T08:01:41.987Z,98220.38
2023-04-21T08:05:44.354Z,98225.97
2023-04-21T08:09:46.996Z,98223.50
2023-04-21T08:13:50.539Z,98224.06
2023-04-21T08:17:53.580Z,98225.16
2023-04-21T08:21:56.019Z,98229.19
2023-04-21T08:25:58.219Z,98231.00
2023-04-21T08:30:00.568Z,98224.88
2023-04-21T08:34:03.201Z,98223.75
2023-04-21T08:38:05.438Z,98223.00
2023-04-21T08:42:09.422Z,98227.06
2023-04-21T08:46:12.658Z,98216.41
2023-04-21T08:50:15.000Z,98223.31
2023-04-21T08:54:17.173Z,98222.78
2023-04-21T08:58:19.468Z,98214.47
2023-04-21T09:02:22.500Z,98217.09
2023-04-21T09:06:43.670Z,98208.84
2023-04-21T09:10:48.213Z,98212.88
2023-04-21T09:14:50.508Z,98212.31
2023-04-21T09:18:52.562Z,98208.63
2023-04-21T09:22:55.459Z,98215.38
2023-04-21T09:26:57.606Z,98210.19
2023-04-21T09:30:59.785Z,98214.28
2023-04-21T09:35:02.035Z,98211.31
2023-04-21T09:43:11.232Z,98213.47
2023-04-21T09:47:14.421Z,98207.91
2023-04-21T09:55:27.223Z,98209.31
2023-04-21T09:59:37.640Z,98212.63
2023-04-21T10:03:42.440Z,98203.22
2023-04-21T10:07:46.316Z,98206.03
2023-04-21T10:11:48.871Z,98194.28
2023-04-21T10:16:10.546Z,98195.16
2023-04-21T10:20:15.857Z,98189.69
2023-04-21T10:24:19.600Z,98190.75
2023-04-21T10:29:00.799Z,98176.69
2023-04-21T10:33:05.202Z,98186.31
2023-04-21T10:37:07.541Z,98173.72
2023-04-21T10:41:30.601Z,98171.69
2023-04-21T10:45:32.903Z,98171.03
2023-04-21T10:49:39.292Z,98161.88
2023-04-21T10:53:44.396Z,98163.38
2023-04-21T10:57:46.765Z,98158.66
2023-04-21T11:01:48.861Z,98145.88
2023-04-21T11:05:50.872Z,98137.91
2023-04-21T11:10:01.523Z,98151.88
2023-04-21T11:14:03.806Z,98149.88
2023-04-21T11:18:07.777Z,98148.56
2023-04-21T11:22:09.920Z,98148.94
2023-04-21T11:26:11.906Z,98146.84
2023-04-21T11:30:14.554Z,98149.94
2023-04-21T11:34:21.144Z,98149.25
2023-04-21T11:38:25.065Z,98145.97
2023-04-21T11:42:28.227Z,98151.31
2023-04-21T11:46:30.525Z,98139.81
2023-04-21T11:50:32.710Z,98150.44
2023-04-21T11:54:34.822Z,98155.50
2023-04-21T11:58:37.814Z,98145.56
2023-04-21T12:02:40.543Z,98144.78
2023-04-21T12:06:43.979Z,98142.06
2023-04-21T12:10:47.238Z,98153.03
2023-04-21T12:14:51.367Z,98151.00
2023-04-21T12:18:54.145Z,98151.31
2023-04-21T12:22:56.776Z,98153.53
2023-04-21T12:26:59.178Z,98142.78
2023-04-21T12:31:01.470Z,98144.34
2023-04-21T12:35:05.586Z,98153.34
2023-04-21T12:39:07.981Z,98157.09
2023-04-21T12:43:10.497Z,98158.28
2023-04-21T12:47:15.353Z,98161.72
2023-04-21T12:51:18.409Z,98146.56
2023-04-21T12:55:23.413Z,98144.78
2023-04-21T12:59:26.833Z,98154.88
2023-04-21T13:03:33.822Z,98159.44
2023-04-21T13:07:37.138Z,98157.47
2023-04-21T13:11:40.141Z,98156.97
2023-04-21T13:15:42.924Z,98149.41
2023-04-21T13:19:45.677Z,98151.31
2023-04-21T13:23:48.645Z,98165.44
2023-04-21T13:27:52.876Z,98149.59
2023-04-21T13:31:56.587Z,98145.75
2023-04-21T13:35:58.892Z,98145.63
2023-04-21T13:40:01.115Z,98143.81
2023-04-21T13:44:03.371Z,98156.63
2023-04-21T13:48:05.925Z,98148.84
2023-04-21T13:52:08.905Z,98155.16
2023-04-21T13:56:14.236Z,98154.66
2023-04-21T14:00:17.580Z,98154.25
2023-04-21T14:04:21.397Z,98160.16
2023-04-21T14:08:23.612Z,98159.22
2023-04-21T14:12:26.394Z,98155.94
2023-04-21T14:16:28.901Z,98164.28
2023-04-21T14:20:34.617Z,98156.97
2023-04-21T14:24:38.766Z,98161.34
2023-04-21T14:28:40.891Z,98159.91
2023-04-21T14:32:45.699Z,98164.78
2023-04-21T14:36:50.119Z,98156.63
2023-04-21T14:40:55.170Z,98159.97
2023-04-21T14:44:57.250Z,98163.75
2023-04-21T14:48:59.380Z,98164.31
2023-04-21T14:53:01.504Z,98175.59
2023-04-21T14:57:18.948Z,98169.75
2023-04-21T15:01:25.781Z,98173.25
2023-04-21T15:05:28.641Z,98175.91
2023-04-21T15:09:31.198Z,98191.97
2023-04-21T15:13:33.588Z,98214.06
2023-04-21T15:17:36.014Z,98203.38
2023-04-21T15:21:38.217Z,98207.09
2023-04-21T15:25:41.014Z,98206.91
2023-04-21T15:29:43.308Z,98201.28
2023-04-21T15:33:45.499Z,98209.94
2023-04-21T15:37:47.586Z,98194.38
2023-04-21T15:41:49.797Z,98191.38
2023-04-21T15:45:51.902Z,98191.75
2023-04-21T15:49:54.126Z,98187.22
2023-04-21T15:53:56.480Z,98173.34
2023-04-21T15:57:58.623Z,98164.75
2023-04-21T16:02:00.894Z,98170.00
2023-04-21T16:06:03.219Z,98170.50
2023-04-21T16:10:06.760Z,98157.59
2023-04-21T16:14:09.844Z,98151.97
2023-04-21T16:18:12.311Z,98154.66
2023-04-21T16:22:15.029Z,98165.16
2023-04-21T16:26:17.226Z,98159.38
2023-04-21T16:30:19.415Z,98161.03
2023-04-21T16:34:21.699Z,98158.56
2023-04-21T16:38:24.243Z,98165.22
2023-04-21T16:42:26.389Z,98164.59
2023-04-21T16:46:28.562Z,98166.88
2023-04-21T16:50:30.881Z,98171.28
2023-04-21T16:54:33.116Z,98167.38
2023-04-21T16:58:35.424Z,98181.22
2023-04-21T17:02:37.836Z,98183.47
2023-04-21T17:06:41.402Z,98187.44
2023-04-21T17:10:43.508Z,98197.44
2023-04-21T17:14:46.109Z,98191.88
2023-04-21T17:18:48.673Z,98196.13
2023-04-21T17:22:50.878Z,98203.59
2023-04-21T17:26:53.234Z,98209.03
2023-04-21T17:31:07.117Z,98201.19
2023-04-21T17:35:19.179Z,98204.66
2023-04-21T17:39:21.271Z,98204.69
2023-04-21T17:43:23.436Z,98195.22
2023-04-21T17:47:25.826Z,98191.13
2023-04-21T17:51:28.777Z,98188.63
2023-04-21T17:55:30.972Z,98194.31
2023-04-21T17:59:33.151Z,98194.03
2023-04-21T18:03:36.397Z,98207.00
2023-04-21T18:07:38.617Z,98201.91
2023-04-21T18:11:41.746Z,98207.59
2023-04-21T18:15:44.450Z,98193.91
2023-04-21T18:19:46.664Z,98199.84
2023-04-21T18:23:49.218Z,98205.38
2023-04-21T18:27:51.577Z,98217.91
2023-04-21T18:31:53.910Z,98213.25
2023-04-21T18:35:56.157Z,98219.00
2023-04-21T18:39:58.270Z,98228.78
2023-04-21T18:44:00.438Z,98231.97
2023-04-21T18:48:02.648Z,98234.94
2023-04-21T18:52:05.173Z,98248.25
2023-04-21T18:56:07.444Z,98251.03
2023-04-21T19:00:10.154Z,98245.94
2023-04-21T19:04:12.408Z,98251.16
2023-04-21T19:08:14.742Z,98257.72
2023-04-21T19:12:16.966Z,98266.41
2023-04-21T19:16:19.204Z,98270.75
2023-04-21T19:20:21.889Z,98275.19
2023-04-21T19:24:24.151Z,98278.44
2023-04-21T19:28:26.916Z,98278.44
2023-04-21T19:32:29.132Z,98282.25
2023-04-21T19:36:31.532Z,98284.56
2023-04-21T19:40:33.658Z,98283.81
2023-04-21T19:44:36.438Z,98289.25
2023-04-21T19:48:40.666Z,98279.00
2023-04-21T19:52:46.554Z,98279.06
2023-04-21T19:56:49.021Z,98276.66
2023-04-21T20:00:51.437Z,98283.97
2023-04-21T20:04:54.008Z,98283.19
2023-04-21T20:08:56.732Z,98279.66
2023-04-21T20:12:58.884Z,98293.16
2023-04-21T20:17:01.029Z,98289.09
2023-04-21T20:21:03.275Z,98287.22
2023-04-21T20:25:06.154Z,98297.69
2023-04-21T20:29:08.434Z,98297.66
2023-04-21T20:33:11.209Z,98303.25
2023-04-21T20:37:13.643Z,98301.13
2023-04-21T20:41:15.763Z,98293.38
2023-04-21T20:45:18.532Z,98298.97
2023-04-21T20:49:20.895Z,98304.81
2023-04-21T20:53:23.636Z,98315.47
2023-04-21T20:57:27.029Z,98321.56
2023-04-21T21:01:31.347Z,98317.03
2023-04-21T21:05:34.284Z,98320.19
2023-04-21T21:09:36.551Z,98314.84
2023-04-21T21:13:39.090Z,98316.69
2023-04-21T21:17:41.293Z,98319.06
2023-04-21T21:21:43.598Z,98333.72
2023-04-21T21:25:45.616Z,98346.00
2023-04-21T21:29:47.799Z,98340.41
2023-04-21T21:33:50.192Z,98330.28
2023-04-21T21:37:52.216Z,98338.00
2023-04-21T21:41:54.292Z,98336.97
2023-04-21T21:45:56.399Z,98348.66
2023-04-21T21:49:59.231Z,98352.63
2023-04-21T21:54:01.383Z,98363.28
2023-04-21T21:58:04.183Z,98360.06
2023-04-21T22:02:06.353Z,98364.75
2023-04-21T22:06:08.497Z,98373.75
2023-04-21T22:10:11.469Z,98374.25
2023-04-21T22:14:22.778Z,98386.16
2023-04-21T22:18:27.126Z,98379.34
2023-04-21T22:22:29.381Z,98379.97
2023-04-21T22:26:31.551Z,98383.78
2023-04-21T22:30:33.774Z,98389.19
2023-04-21T22:34:36.055Z,98377.84
2023-04-21T22:38:38.542Z,98380.53
2023-04-21T22:42:40.854Z,98385.59
2023-04-21T22:46:43.333Z,98378.16
2023-04-21T22:50:45.412Z,98382.91
2023-04-21T22:54:47.570Z,98379.63
2023-04-21T22:58:50.129Z,98384.13
2023-04-21T23:02:52.739Z,98380.38
2023-04-21T23:06:54.946Z,98385.59
2023-04-21T23:10:57.426Z,98390.44
2023-04-21T23:15:01.372Z,98392.84
2023-04-21T23:19:03.528Z,98387.28
2023-04-21T23:23:05.884Z,98386.34
2023-04-21T23:27:09.875Z,98381.53
2023-04-21T23:31:11.938Z,98383.91
2023-04-21T23:35:14.013Z,98393.25
2023-04-21T23:39:18.123Z,98378.19
2023-04-21T23:43:20.228Z,98381.78
2023-04-21T23:47:22.445Z,98382.66
2023-04-21T23:51:25.029Z,98387.47
2023-04-21T23:55:27.048Z,98380.94
2023-04-21T23:59:29.140Z,98388.22
